sensor_id;sensor_type;location;lat;lon;timestamp;pressure;altitude;pressure_sealevel;temperature;humidity
7670;BME280;3877;42.562;27.636;2023-12-29T00:02:05;102341.91;;;10.31;100.00
7670;BME280;3877;42.562;27.636;2023-12-29T00:04:33;102249.50;;;9.76;100.00
7670;BME280;3877;42.562;27.636;2023-12-29T00:07:01;102345.53;;;10.37;100.00
7670;BME280;3877;42.562;27.636;2023-12-29T00:09:29;102341.59;;;10.43;100.00
7670;BME280;3877;42.562;27.636;2023-12-29T00:12:04;102349.75;;;10.39;100.00
7670;BME280;3877;42.562;27.636;2023-12-29T00:14:32;102350.00;;;10.43;100.00
7670;BME280;3877;42.562;27.636;2023-12-29T00:17:00;102359.84;;;10.40;100.00
7670;BME280;3877;42.562;27.636;2023-12-29T00:19:30;102351.69;;;10.44;100.00
7670;BME280;3877;42.562;27.636;2023-12-29T00:21:57;102344.13;;;10.49;100.00
7670;BME280;3877;42.562;27.636;2023-12-29T00:24:25;102305.19;;;10.33;100.00
7670;BME280;3877;42.562;27.636;2023-12-29T00:26:56;102341.00;;;10.61;100.00
7670;BME280;3877;42.562;27.636;2023-12-29T00:29:24;102331.50;;;10.52;100.00
7670;BME280;3877;42.562;27.636;2023-12-29T00:31:51;102310.19;;;10.46;100.00
7670;BME280;3877;42.562;27.636;2023-12-29T00:34:20;102330.66;;;10.51;100.00
7670;BME280;3877;42.562;27.636;2023-12-29T00:36:48;102339.91;;;10.52;100.00
7670;BME280;3877;42.562;27.636;2023-12-29T00:39:16;102326.47;;;10.49;100.00
7670;BME280;3877;42.562;27.636;2023-12-29T00:41:43;102343.28;;;10.49;100.00
7670;BME280;3877;42.562;27.636;2023-12-29T00:44:11;102321.47;;;10.36;100.00
7670;BME280;3877;42.562;27.636;2023-12-29T00:46:38;102328.16;;;10.40;100.00
7670;BME280;3877;42.562;27.636;2023-12-29T00:49:06;102318.06;;;10.44;100.00
7670;BME280;3877;42.562;27.636;2023-12-29T00:51:39;102320.53;;;10.50;100.00
7670;BME280;3877;42.562;27.636;2023-12-29T00:54:07;102320.88;;;10.39;100.00
7670;BME280;3877;42.562;27.636;2023-12-29T00:56:34;102314.94;;;10.45;100.00
7670;BME280;3877;42.562;27.636;2023-12-29T00:59:02;102319.78;;;10.35;100.00
7670;BME280;3877;42.562;27.636;2023-12-29T01:01:33;102313.31;;;10.34;100.00
7670;BME280;3877;42.562;27.636;2023-12-29T01:04:01;102309.69;;;10.19;100.00
7670;BME280;3877;42.562;27.636;2023-12-29T01:06:28;102321.97;;;10.43;100.00
7670;BME280;3877;42.562;27.636;2023-12-29T01:08:58;102320.88;;;10.39;100.00
7670;BME280;3877;42.562;27.636;2023-12-29T01:11:26;102316.97;;;10.35;100.00
7670;BME280;3877;42.562;27.636;2023-12-29T01:13:53;102312.50;;;10.29;100.00
7670;BME280;3877;42.562;27.636;2023-12-29T01:16:21;102229.63;;;9.77;100.00
7670;BME280;3877;42.562;27.636;2023-12-29T01:18:48;102318.66;;;10.31;100.00
7670;BME280;3877;42.562;27.636;2023-12-29T01:21:15;102313.06;;;10.31;100.00
7670;BME280;3877;42.562;27.636;2023-12-29T01:23:43;102310.53;;;10.19;100.00
7670;BME280;3877;42.562;27.636;2023-12-29T01:26:12;102303.81;;;10.25;100.00
7670;BME280;3877;42.562;27.636;2023-12-29T01:28:39;102319.78;;;10.20;100.00
7670;BME280;3877;42.562;27.636;2023-12-29T01:31:07;102315.00;;;10.15;100.00
7670;BME280;3877;42.562;27.636;2023-12-29T01:33:34;102318.69;;;10.21;100.00
7670;BME280;3877;42.562;27.636;2023-12-29T01:36:02;102220.72;;;9.55;100.00
7670;BME280;3877;42.562;27.636;2023-12-29T01:38:30;102316.13;;;10.09;100.00
7670;BME280;3877;42.562;27.636;2023-12-29T01:40:57;102300.16;;;10.04;100.00
7670;BME280;3877;42.562;27.636;2023-12-29T01:43:26;102305.22;;;10.02;100.00
7670;BME280;3877;42.562;27.636;2023-12-29T01:45:54;102303.53;;;10.01;100.00
7670;BME280;3877;42.562;27.636;2023-12-29T01:48:22;102306.34;;;10.06;100.00
7670;BME280;3877;42.562;27.636;2023-12-29T01:50:51;102307.44;;;10.10;100.00
7670;BME280;3877;42.562;27.636;2023-12-29T01:53:19;102304.09;;;9.98;100.00
7670;BME280;3877;42.562;27.636;2023-12-29T01:55:47;102303.25;;;9.98;100.00
7670;BME280;3877;42.562;27.636;2023-12-29T01:58:16;102296.25;;;9.95;100.00
7670;BME280;3877;42.562;27.636;2023-12-29T02:00:46;102290.66;;;10.00;100.00
7670;BME280;3877;42.562;27.636;2023-12-29T02:03:13;102293.19;;;10.02;100.00
7670;BME280;3877;42.562;27.636;2023-12-29T02:05:42;102283.94;;;10.12;100.00
7670;BME280;3877;42.562;27.636;2023-12-29T02:08:10;102284.47;;;10.14;100.00
7670;BME280;3877;42.562;27.636;2023-12-29T02:10:38;102293.47;;;10.16;100.00
7670;BME280;3877;42.562;27.636;2023-12-29T02:13:06;102280.03;;;10.02;100.00
7670;BME280;3877;42.562;27.636;2023-12-29T02:15:34;102273.28;;;9.93;100.00
7670;BME280;3877;42.562;27.636;2023-12-29T02:18:06;102273.56;;;10.07;100.00
7670;BME280;3877;42.562;27.636;2023-12-29T02:20:35;102267.13;;;10.17;100.00
7670;BME280;3877;42.562;27.636;2023-12-29T02:23:02;102260.38;;;10.13;100.00
7670;BME280;3877;42.562;27.636;2023-12-29T02:25:34;102250.84;;;10.08;100.00
7670;BME280;3877;42.562;27.636;2023-12-29T02:28:06;102245.81;;;10.10;100.00
7670;BME280;3877;42.562;27.636;2023-12-29T02:30:38;102235.75;;;10.04;100.00
7670;BME280;3877;42.562;27.636;2023-12-29T02:33:10;102215.59;;;9.97;100.00
7670;BME280;3877;42.562;27.636;2023-12-29T02:35:42;102238.28;;;10.16;100.00
7670;BME280;3877;42.562;27.636;2023-12-29T02:38:11;102247.47;;;10.22;100.00
7670;BME280;3877;42.562;27.636;2023-12-29T02:40:40;102251.69;;;10.24;100.00
7670;BME280;3877;42.562;27.636;2023-12-29T02:43:09;102236.56;;;10.15;100.00
7670;BME280;3877;42.562;27.636;2023-12-29T02:45:38;102229.28;;;10.19;100.00
7670;BME280;3877;42.562;27.636;2023-12-29T02:48:06;102235.16;;;10.23;100.00
7670;BME280;3877;42.562;27.636;2023-12-29T02:50:33;102236.84;;;10.19;100.00
7670;BME280;3877;42.562;27.636;2023-12-29T02:53:01;102224.81;;;10.18;100.00
7670;BME280;3877;42.562;27.636;2023-12-29T02:55:30;102229.03;;;10.21;100.00
7670;BME280;3877;42.562;27.636;2023-12-29T02:58:00;102233.50;;;10.06;100.00
7670;BME280;3877;42.562;27.636;2023-12-29T03:00:28;102232.41;;;10.02;100.00
7670;BME280;3877;42.562;27.636;2023-12-29T03:02:56;102233.50;;;10.06;100.00
7670;BME280;3877;42.562;27.636;2023-12-29T03:05:23;102231.59;;;9.92;100.00
7670;BME280;3877;42.562;27.636;2023-12-29T03:07:51;102226.50;;;9.99;100.00
7670;BME280;3877;42.562;27.636;2023-12-29T03:10:19;102217.31;;;9.83;100.00
7670;BME280;3877;42.562;27.636;2023-12-29T03:12:46;102220.66;;;9.85;100.00
7670;BME280;3877;42.562;27.636;2023-12-29T03:15:16;102214.47;;;9.93;100.00
7670;BME280;3877;42.562;27.636;2023-12-29T03:17:43;102218.97;;;9.89;100.00
7670;BME280;3877;42.562;27.636;2023-12-29T03:20:12;102212.81;;;9.87;100.00
7670;BME280;3877;42.562;27.636;2023-12-29T03:22:40;102219.50;;;10.01;100.00
7670;BME280;3877;42.562;27.636;2023-12-29T03:25:08;102222.31;;;9.96;100.00
7670;BME280;3877;42.562;27.636;2023-12-29T03:27:36;102211.13;;;9.96;100.00
7670;BME280;3877;42.562;27.636;2023-12-29T03:30:04;102207.22;;;9.97;100.00
7670;BME280;3877;42.562;27.636;2023-12-29T03:32:33;102206.31;;;10.12;100.00
7670;BME280;3877;42.562;27.636;2023-12-29T03:35:00;102202.69;;;10.12;100.00
7670;BME280;3877;42.562;27.636;2023-12-29T03:37:28;102179.22;;;9.87;100.00
7670;BME280;3877;42.562;27.636;2023-12-29T03:39:55;102208.84;;;10.19;100.00
7670;BME280;3877;42.562;27.636;2023-12-29T03:42:23;102217.22;;;10.14;100.00
7670;BME280;3877;42.562;27.636;2023-12-29T03:44:50;102210.53;;;10.09;100.00
7670;BME280;3877;42.562;27.636;2023-12-29T03:47:18;102204.91;;;10.09;100.00
7670;BME280;3877;42.562;27.636;2023-12-29T03:49:46;102214.75;;;10.02;100.00
7670;BME280;3877;42.562;27.636;2023-12-29T03:52:14;102209.72;;;9.94;100.00
7670;BME280;3877;42.562;27.636;2023-12-29T03:54:41;102221.47;;;10.06;100.00
7670;BME280;3877;42.562;27.636;2023-12-29T03:57:09;102217.00;;;9.85;100.00
7670;BME280;3877;42.562;27.636;2023-12-29T03:59:36;102208.91;;;9.88;100.00
7670;BME280;3877;42.562;27.636;2023-12-29T04:02:04;102213.94;;;9.91;100.00
7670;BME280;3877;42.562;27.636;2023-12-29T04:04:32;102215.28;;;10.04;100.00
7670;BME280;3877;42.562;27.636;2023-12-29T04:07:01;102213.63;;;9.98;100.00
7670;BME280;3877;42.562;27.636;2023-12-29T04:09:30;102187.63;;;9.92;100.00
7670;BME280;3877;42.562;27.636;2023-12-29T04:11:57;102218.41;;;9.97;100.00
7670;BME280;3877;42.562;27.636;2023-12-29T04:14:25;102219.50;;;10.12;100.00
7670;BME280;3877;42.562;27.636;2023-12-29T04:16:53;102222.81;;;10.14;100.00
7670;BME280;3877;42.562;27.636;2023-12-29T04:19:20;102221.72;;;10.20;100.00
7670;BME280;3877;42.562;27.636;2023-12-29T04:21:51;102235.16;;;10.28;100.00
7670;BME280;3877;42.562;27.636;2023-12-29T04:24:20;102219.47;;;10.22;100.00
7670;BME280;3877;42.562;27.636;2023-12-29T04:26:47;102227.28;;;10.40;100.00
7670;BME280;3877;42.562;27.636;2023-12-29T04:29:15;102219.72;;;10.35;100.00
7670;BME280;3877;42.562;27.636;2023-12-29T04:31:42;102233.44;;;10.37;100.00
7670;BME280;3877;42.562;27.636;2023-12-29T04:34:10;102221.66;;;10.40;100.00
7670;BME280;3877;42.562;27.636;2023-12-29T04:36:37;102215.47;;;10.43;100.00
7670;BME280;3877;42.562;27.636;2023-12-29T04:39:04;102229.47;;;10.48;100.00
7670;BME280;3877;42.562;27.636;2023-12-29T04:41:36;102232.78;;;10.55;100.00
7670;BME280;3877;42.562;27.636;2023-12-29T04:44:04;102230.25;;;10.64;100.00
7670;BME280;3877;42.562;27.636;2023-12-29T04:46:31;102230.28;;;10.59;100.00
7670;BME280;3877;42.562;27.636;2023-12-29T04:48:59;102229.69;;;10.62;100.00
7670;BME280;3877;42.562;27.636;2023-12-29T04:51:27;102245.16;;;10.54;100.00
7670;BME280;3877;42.562;27.636;2023-12-29T04:53:56;102232.50;;;10.57;100.00
7670;BME280;3877;42.562;27.636;2023-12-29T04:56:23;102231.09;;;10.64;100.00
7670;BME280;3877;42.562;27.636;2023-12-29T04:58:52;102232.50;;;10.57;100.00
7670;BME280;3877;42.562;27.636;2023-12-29T05:01:20;102232.69;;;10.75;100.00
7670;BME280;3877;42.562;27.636;2023-12-29T05:03:47;102239.16;;;10.71;100.00
7670;BME280;3877;42.562;27.636;2023-12-29T05:06:15;102241.69;;;10.72;100.00
7670;BME280;3877;42.562;27.636;2023-12-29T05:08:42;102178.53;;;10.31;100.00
7670;BME280;3877;42.562;27.636;2023-12-29T05:11:09;102226.63;;;10.58;100.00
7670;BME280;3877;42.562;27.636;2023-12-29T05:13:37;102231.72;;;10.46;100.00
7670;BME280;3877;42.562;27.636;2023-12-29T05:16:06;102221.91;;;10.43;100.00
7670;BME280;3877;42.562;27.636;2023-12-29T05:18:34;102225.56;;;10.44;100.00
7670;BME280;3877;42.562;27.636;2023-12-29T05:21:01;102220.25;;;10.37;100.00
7670;BME280;3877;42.562;27.636;2023-12-29T05:23:32;102226.44;;;10.34;100.00
7670;BME280;3877;42.562;27.636;2023-12-29T05:26:00;102222.22;;;10.37;100.00
7670;BME280;3877;42.562;27.636;2023-12-29T05:28:28;102232.84;;;10.45;100.00
7670;BME280;3877;42.562;27.636;2023-12-29T05:30:55;102233.97;;;10.49;100.00
7670;BME280;3877;42.562;27.636;2023-12-29T05:33:26;102233.97;;;10.44;100.00
7670;BME280;3877;42.562;27.636;2023-12-29T05:35:54;102237.00;;;10.52;100.00
7670;BME280;3877;42.562;27.636;2023-12-29T05:38:21;102232.22;;;10.63;100.00
7670;BME280;3877;42.562;27.636;2023-12-29T05:40:48;102238.69;;;10.59;100.00
7670;BME280;3877;42.562;27.636;2023-12-29T05:43:17;102237.00;;;10.52;100.00
7670;BME280;3877;42.562;27.636;2023-12-29T05:45:44;102246.25;;;10.53;100.00
7670;BME280;3877;42.562;27.636;2023-12-29T05:48:12;102235.91;;;10.53;100.00
7670;BME280;3877;42.562;27.636;2023-12-29T05:50:41;102233.06;;;10.64;100.00
7670;BME280;3877;42.562;27.636;2023-12-29T05:53:08;102229.97;;;10.55;100.00
7670;BME280;3877;42.562;27.636;2023-12-29T05:55:37;102242.97;;;10.36;100.00
7670;BME280;3877;42.562;27.636;2023-12-29T05:58:05;102225.00;;;10.42;100.00
7670;BME280;3877;42.562;27.636;2023-12-29T06:00:32;102232.88;;;10.40;100.00
7670;BME280;3877;42.562;27.636;2023-12-29T06:03:00;102232.91;;;10.30;100.00
7670;BME280;3877;42.562;27.636;2023-12-29T06:05:28;102239.03;;;10.32;100.00
7670;BME280;3877;42.562;27.636;2023-12-29T06:07:57;102239.66;;;10.24;100.00
7670;BME280;3877;42.562;27.636;2023-12-29T06:10:25;102234.91;;;10.19;100.00
7670;BME280;3877;42.562;27.636;2023-12-29T06:12:52;102235.72;;;10.30;100.00
7670;BME280;3877;42.562;27.636;2023-12-29T06:15:20;102224.50;;;10.15;100.00
7670;BME280;3877;42.562;27.636;2023-12-29T06:17:47;102241.31;;;10.25;100.00
7670;BME280;3877;42.562;27.636;2023-12-29T06:20:15;102225.63;;;10.24;100.00
7670;BME280;3877;42.562;27.636;2023-12-29T06:22:42;102242.47;;;10.19;100.00
7670;BME280;3877;42.562;27.636;2023-12-29T06:25:11;102237.94;;;10.28;100.00
7670;BME280;3877;42.562;27.636;2023-12-29T06:27:39;102238.53;;;10.25;100.00
7670;BME280;3877;42.562;27.636;2023-12-29T06:30:08;102249.72;;;10.15;100.00
7670;BME280;3877;42.562;27.636;2023-12-29T06:32:36;102240.78;;;10.18;100.00
7670;BME280;3877;42.562;27.636;2023-12-29T06:35:04;102253.66;;;10.24;100.00
7670;BME280;3877;42.562;27.636;2023-12-29T06:37:32;102248.06;;;9.98;100.00
7670;BME280;3877;42.562;27.636;2023-12-29T06:40:00;102250.84;;;10.14;100.00
7670;BME280;3877;42.562;27.636;2023-12-29T06:42:30;102240.81;;;9.87;100.00
7670;BME280;3877;42.562;27.636;2023-12-29T06:44:57;102216.22;;;9.49;100.00
7670;BME280;3877;42.562;27.636;2023-12-29T06:47:25;102251.19;;;9.77;100.00
7670;BME280;3877;42.562;27.636;2023-12-29T06:49:52;102251.47;;;9.90;100.00
7670;BME280;3877;42.562;27.636;2023-12-29T06:52:20;102250.34;;;9.91;100.00
7670;BME280;3877;42.562;27.636;2023-12-29T06:54:47;102249.78;;;9.79;100.00
7670;BME280;3877;42.562;27.636;2023-12-29T06:57:16;102263.22;;;9.87;100.00
7670;BME280;3877;42.562;27.636;2023-12-29T06:59:46;102258.22;;;9.64;100.00
7670;BME280;3877;42.562;27.636;2023-12-29T07:02:14;102252.63;;;9.69;100.00
7670;BME280;3877;42.562;27.636;2023-12-29T07:04:42;102259.88;;;9.75;100.00
7670;BME280;3877;42.562;27.636;2023-12-29T07:07:09;102262.13;;;9.88;100.00
7670;BME280;3877;42.562;27.636;2023-12-29T07:09:38;102258.19;;;9.84;100.00
7670;BME280;3877;42.562;27.636;2023-12-29T07:12:07;102256.53;;;9.73;100.00
7670;BME280;3877;42.562;27.636;2023-12-29T07:14:35;102254.84;;;9.82;100.00
7670;BME280;3877;42.562;27.636;2023-12-29T07:17:04;102246.97;;;9.74;100.00
7670;BME280;3877;42.562;27.636;2023-12-29T07:19:31;102243.91;;;9.86;100.00
7670;BME280;3877;42.562;27.636;2023-12-29T07:22:03;102248.91;;;10.04;100.00
7670;BME280;3877;42.562;27.636;2023-12-29T07:24:37;102254.81;;;9.97;100.00
7670;BME280;3877;42.562;27.636;2023-12-29T07:27:04;102220.13;;;9.88;100.00
7670;BME280;3877;42.562;27.636;2023-12-29T07:29:33;102252.56;;;9.84;100.00
7670;BME280;3877;42.562;27.636;2023-12-29T07:32:03;102256.53;;;9.83;100.00
7670;BME280;3877;42.562;27.636;2023-12-29T07:34:31;102245.88;;;9.80;100.00
7670;BME280;3877;42.562;27.636;2023-12-29T07:36:58;102257.06;;;9.80;100.00
7670;BME280;3877;42.562;27.636;2023-12-29T07:39:26;102255.94;;;9.86;100.00
7670;BME280;3877;42.562;27.636;2023-12-29T07:41:53;102255.38;;;9.84;100.00
7670;BME280;3877;42.562;27.636;2023-12-29T07:44:21;102245.28;;;9.93;100.00
7670;BME280;3877;42.562;27.636;2023-12-29T07:46:48;102237.94;;;10.13;100.00
7670;BME280;3877;42.562;27.636;2023-12-29T07:49:17;102252.78;;;10.28;100.00
7670;BME280;3877;42.562;27.636;2023-12-29T07:51:46;102257.00;;;10.31;100.00
7670;BME280;3877;42.562;27.636;2023-12-29T07:54:14;102254.19;;;10.36;100.00
7670;BME280;3877;42.562;27.636;2023-12-29T07:56:42;102260.94;;;10.30;100.00
7670;BME280;3877;42.562;27.636;2023-12-29T07:59:09;102255.00;;;10.36;100.00
7670;BME280;3877;42.562;27.636;2023-12-29T08:01:37;102258.16;;;10.25;100.00
7670;BME280;3877;42.562;27.636;2023-12-29T08:04:05;102260.38;;;10.23;100.00
7670;BME280;3877;42.562;27.636;2023-12-29T08:06:34;102249.41;;;10.36;100.00
7670;BME280;3877;42.562;27.636;2023-12-29T08:09:04;102270.41;;;10.44;100.00
7670;BME280;3877;42.562;27.636;2023-12-29T08:11:31;102272.41;;;10.33;100.00
7670;BME280;3877;42.562;27.636;2023-12-29T08:13:58;102275.41;;;10.57;100.00
7670;BME280;3877;42.562;27.636;2023-12-29T08:16:30;102284.94;;;10.51;100.00
7670;BME280;3877;42.562;27.636;2023-12-29T08:18:57;102181.44;;;9.95;100.00
7670;BME280;3877;42.562;27.636;2023-12-29T08:21:24;102284.06;;;10.61;100.00
7670;BME280;3877;42.562;27.636;2023-12-29T08:23:54;102283.53;;;10.64;100.00
7670;BME280;3877;42.562;27.636;2023-12-29T08:26:21;102284.28;;;10.74;100.00
7670;BME280;3877;42.562;27.636;2023-12-29T08:28:48;102278.69;;;10.74;100.00
7670;BME280;3877;42.562;27.636;2023-12-29T08:31:18;102246.25;;;10.58;100.00
7670;BME280;3877;42.562;27.636;2023-12-29T08:33:47;102271.97;;;10.70;100.00
7670;BME280;3877;42.562;27.636;2023-12-29T08:36:18;102279.22;;;10.81;100.00
7670;BME280;3877;42.562;27.636;2023-12-29T08:38:46;102270.78;;;10.86;100.00
7670;BME280;3877;42.562;27.636;2023-12-29T08:41:15;102271.88;;;10.90;100.00
7670;BME280;3877;42.562;27.636;2023-12-29T08:43:44;102267.31;;;11.05;100.00
7670;BME280;3877;42.562;27.636;2023-12-29T08:46:11;102279.56;;;11.19;100.00
7670;BME280;3877;42.562;27.636;2023-12-29T08:48:39;102273.38;;;11.22;100.00
7670;BME280;3877;42.562;27.636;2023-12-29T08:51:06;102257.19;;;11.09;100.00
7670;BME280;3877;42.562;27.636;2023-12-29T08:53:33;102253.22;;;11.15;100.00
7670;BME280;3877;42.562;27.636;2023-12-29T08:56:01;102256.38;;;11.42;100.00
7670;BME280;3877;42.562;27.636;2023-12-29T08:58:31;102227.38;;;11.18;100.00
7670;BME280;3877;42.562;27.636;2023-12-29T09:00:59;102230.06;;;11.33;100.00
7670;BME280;3877;42.562;27.636;2023-12-29T09:03:27;102240.41;;;11.37;100.00
7670;BME280;3877;42.562;27.636;2023-12-29T09:05:55;102246.19;;;11.51;100.00
7670;BME280;3877;42.562;27.636;2023-12-29T09:08:23;102219.75;;;11.57;100.00
7670;BME280;3877;42.562;27.636;2023-12-29T09:10:51;102229.78;;;11.73;100.00
7670;BME280;3877;42.562;27.636;2023-12-29T09:13:18;102215.13;;;11.71;100.00
7670;BME280;3877;42.562;27.636;2023-12-29T09:15:49;102221.16;;;11.89;100.00
7670;BME280;3877;42.562;27.636;2023-12-29T09:18:17;102215.03;;;11.87;100.00
7670;BME280;3877;42.562;27.636;2023-12-29T09:20:45;102215.44;;;11.99;100.00
7670;BME280;3877;42.562;27.636;2023-12-29T09:23:13;102199.81;;;11.93;100.00
7670;BME280;3877;42.562;27.636;2023-12-29T09:25:41;102218.59;;;12.21;100.00
7670;BME280;3877;42.562;27.636;2023-12-29T09:28:09;102223.38;;;12.20;100.00
7670;BME280;3877;42.562;27.636;2023-12-29T09:30:36;102215.69;;;12.26;100.00
7670;BME280;3877;42.562;27.636;2023-12-29T09:33:05;102208.72;;;12.66;100.00
7670;BME280;3877;42.562;27.636;2023-12-29T09:35:33;102207.31;;;13.06;100.00
7670;BME280;3877;42.562;27.636;2023-12-29T09:38:01;102197.41;;;13.27;100.00
7670;BME280;3877;42.562;27.636;2023-12-29T09:40:30;102193.22;;;13.43;100.00
7670;BME280;3877;42.562;27.636;2023-12-29T09:42:59;102193.72;;;13.45;100.00
7670;BME280;3877;42.562;27.636;2023-12-29T09:45:30;102178.97;;;13.53;100.00
7670;BME280;3877;42.562;27.636;2023-12-29T09:48:01;102195.25;;;13.56;100.00
7670;BME280;3877;42.562;27.636;2023-12-29T09:50:32;102185.88;;;13.61;100.00
7670;BME280;3877;42.562;27.636;2023-12-29T09:53:02;102196.13;;;13.84;100.00
7670;BME280;3877;42.562;27.636;2023-12-29T09:55:32;102189.72;;;14.11;100.00
7670;BME280;3877;42.562;27.636;2023-12-29T09:58:01;102185.63;;;14.17;100.00
7670;BME280;3877;42.562;27.636;2023-12-29T10:00:29;102177.91;;;14.23;100.00
7670;BME280;3877;42.562;27.636;2023-12-29T10:02:58;102186.75;;;14.16;100.00
7670;BME280;3877;42.562;27.636;2023-12-29T10:05:25;102172.25;;;14.09;100.00
7670;BME280;3877;42.562;27.636;2023-12-29T10:07:56;102181.88;;;14.08;100.00
7670;BME280;3877;42.562;27.636;2023-12-29T10:10:28;102179.88;;;13.95;100.00
7670;BME280;3877;42.562;27.636;2023-12-29T10:12:56;102177.38;;;14.07;100.00
7670;BME280;3877;42.562;27.636;2023-12-29T10:15:32;102176.44;;;14.12;100.00
7670;BME280;3877;42.562;27.636;2023-12-29T10:18:08;102166.53;;;14.14;100.00
7670;BME280;3877;42.562;27.636;2023-12-29T10:20:45;102150.25;;;14.11;100.00
7670;BME280;3877;42.562;27.636;2023-12-29T10:23:18;102147.72;;;14.23;100.00
7670;BME280;3877;42.562;27.636;2023-12-29T10:25:50;102151.69;;;14.22;100.00
7670;BME280;3877;42.562;27.636;2023-12-29T10:28:19;102130.28;;;14.21;100.00
7670;BME280;3877;42.562;27.636;2023-12-29T10:30:47;102123.72;;;14.39;100.00
7670;BME280;3877;42.562;27.636;2023-12-29T10:33:20;102138.09;;;14.52;100.00
7670;BME280;3877;42.562;27.636;2023-12-29T10:35:57;102127.03;;;14.55;100.00
7670;BME280;3877;42.562;27.636;2023-12-29T10:38:31;102131.44;;;14.48;100.00
7670;BME280;3877;42.562;27.636;2023-12-29T10:41:11;102117.22;;;14.53;100.00
7670;BME280;3877;42.562;27.636;2023-12-29T10:43:40;102109.66;;;14.62;100.00
7670;BME280;3877;42.562;27.636;2023-12-29T10:46:09;102102.75;;;14.68;100.00
7670;BME280;3877;42.562;27.636;2023-12-29T10:48:36;102108.97;;;14.78;100.00
7670;BME280;3877;42.562;27.636;2023-12-29T10:51:05;102107.91;;;14.88;100.00
7670;BME280;3877;42.562;27.636;2023-12-29T10:53:35;102101.34;;;14.79;100.00
7670;BME280;3877;42.562;27.636;2023-12-29T10:56:03;102092.16;;;14.87;100.00
7670;BME280;3877;42.562;27.636;2023-12-29T10:58:30;102096.69;;;14.97;100.00
7670;BME280;3877;42.562;27.636;2023-12-29T11:00:58;102094.06;;;15.00;100.00
7670;BME280;3877;42.562;27.636;2023-12-29T11:03:27;102091.25;;;15.00;100.00
7670;BME280;3877;42.562;27.636;2023-12-29T11:05:58;102093.56;;;15.20;100.00
7670;BME280;3877;42.562;27.636;2023-12-29T11:08:27;102081.22;;;15.16;100.00
7670;BME280;3877;42.562;27.636;2023-12-29T11:10:57;102073.78;;;15.20;100.00
7670;BME280;3877;42.562;27.636;2023-12-29T11:13:25;102069.50;;;15.31;100.00
7670;BME280;3877;42.562;27.636;2023-12-29T11:15:53;102070.03;;;15.33;100.00
7670;BME280;3877;42.562;27.636;2023-12-29T11:18:22;102074.75;;;15.47;100.00
7670;BME280;3877;42.562;27.636;2023-12-29T11:20:50;102072.44;;;15.49;100.00
7670;BME280;3877;42.562;27.636;2023-12-29T11:23:17;102061.16;;;15.49;100.00
7670;BME280;3877;42.562;27.636;2023-12-29T11:25:45;102067.06;;;15.39;100.00
7670;BME280;3877;42.562;27.636;2023-12-29T11:28:16;102061.69;;;15.51;100.00
7670;BME280;3877;42.562;27.636;2023-12-29T11:30:45;101972.16;;;14.98;100.00
7670;BME280;3877;42.562;27.636;2023-12-29T11:33:18;102061.56;;;15.33;100.00
7670;BME280;3877;42.562;27.636;2023-12-29T11:35:51;102067.31;;;15.51;100.00
7670;BME280;3877;42.562;27.636;2023-12-29T11:38:36;102067.75;;;15.66;100.00
7670;BME280;3877;42.562;27.636;2023-12-29T11:41:09;102031.06;;;15.92;100.00
7670;BME280;3877;42.562;27.636;2023-12-29T11:43:42;102054.00;;;16.65;100.00
7670;BME280;3877;42.562;27.636;2023-12-29T11:46:32;102048.84;;;16.75;100.00
7670;BME280;3877;42.562;27.636;2023-12-29T11:49:00;102044.00;;;16.58;100.00
7670;BME280;3877;42.562;27.636;2023-12-29T11:51:33;102051.81;;;16.53;100.00
7670;BME280;3877;42.562;27.636;2023-12-29T11:54:02;102043.81;;;16.55;100.00
7670;BME280;3877;42.562;27.636;2023-12-29T11:56:35;102055.16;;;16.63;100.00
7670;BME280;3877;42.562;27.636;2023-12-29T11:59:17;102049.69;;;16.67;100.00
7670;BME280;3877;42.562;27.636;2023-12-29T12:01:48;102047.16;;;16.57;100.00
7670;BME280;3877;42.562;27.636;2023-12-29T12:04:34;102044.03;;;16.67;100.00
7670;BME280;3877;42.562;27.636;2023-12-29T12:07:05;101957.94;;;16.16;100.00
7670;BME280;3877;42.562;27.636;2023-12-29T12:09:33;102049.88;;;16.62;100.00
7670;BME280;3877;42.562;27.636;2023-12-29T12:12:01;102050.00;;;16.74;100.00
7670;BME280;3877;42.562;27.636;2023-12-29T12:14:48;102051.69;;;16.67;100.00
7670;BME280;3877;42.562;27.636;2023-12-29T12:17:32;102051.53;;;16.63;100.00
7670;BME280;3877;42.562;27.636;2023-12-29T12:20:03;102048.34;;;16.73;100.00
7670;BME280;3877;42.562;27.636;2023-12-29T12:22:31;102019.22;;;16.64;100.00
7670;BME280;3877;42.562;27.636;2023-12-29T12:25:00;102042.50;;;16.78;100.00
7670;BME280;3877;42.562;27.636;2023-12-29T12:27:28;102038.69;;;16.74;100.00
7670;BME280;3877;42.562;27.636;2023-12-29T12:30:00;102024.22;;;16.67;100.00
7670;BME280;3877;42.562;27.636;2023-12-29T12:32:28;102037.38;;;16.80;100.00
7670;BME280;3877;42.562;27.636;2023-12-29T12:34:57;102036.19;;;16.81;100.00
7670;BME280;3877;42.562;27.636;2023-12-29T12:40:47;102035.00;;;16.39;100.00
7670;BME280;3877;42.562;27.636;2023-12-29T12:43:14;102036.50;;;16.37;100.00
7670;BME280;3877;42.562;27.636;2023-12-29T12:45:48;102035.66;;;16.36;100.00
7670;BME280;3877;42.562;27.636;2023-12-29T12:48:20;102042.66;;;16.47;100.00
7670;BME280;3877;42.562;27.636;2023-12-29T12:50:49;102031.53;;;16.85;100.00
7670;BME280;3877;42.562;27.636;2023-12-29T12:53:17;102040.00;;;16.94;100.00
7670;BME280;3877;42.562;27.636;2023-12-29T12:55:47;102038.34;;;16.93;100.00
7670;BME280;3877;42.562;27.636;2023-12-29T12:58:16;102023.88;;;16.77;100.00
7670;BME280;3877;42.562;27.636;2023-12-29T13:00:46;102023.69;;;16.82;100.00
7670;BME280;3877;42.562;27.636;2023-12-29T13:03:14;102020.38;;;16.89;100.00
7670;BME280;3877;42.562;27.636;2023-12-29T13:05:42;102015.53;;;16.89;100.00